Time;durP1;ratioP1;P1;durP2;ratioP2;P2;SDS_P1;SDS_P2;PMS_P1;PMS_P2;Temp;Humidity;BMP_temperature;BMP_pressure;BME280_temperature;BME280_humidity;BME280_pressure;Samples;Min_cycle;Max_cycle;Signal;HPM_P1;HPM_P2
2021/10/30 00:02:05;;;;;;;7.53;4.53;;;11.50;99.90;;;;;;5070068;28;20028;-74
2021/10/30 00:04:31;;;;;;;7.82;4.38;;;11.60;99.90;;;;;;5070384;28;20032;-77
2021/10/30 00:06:59;;;;;;;7.80;4.32;;;11.60;99.90;;;;;;5069950;28;20044;-75
2021/10/30 00:09:24;;;;;;;7.13;4.28;;;11.60;99.90;;;;;;5071475;28;20389;-76
2021/10/30 00:11:50;;;;;;;9.75;4.40;;;11.60;99.90;;;;;;5066200;28;21736;-75
2021/10/30 00:14:16;;;;;;;8.13;4.28;;;11.70;99.90;;;;;;5064143;28;20486;-76
2021/10/30 00:16:42;;;;;;;8.82;4.03;;;11.70;99.90;;;;;;5063581;28;20505;-75
2021/10/30 00:19:07;;;;;;;8.77;4.57;;;11.60;99.90;;;;;;5069261;28;20024;-74
2021/10/30 00:21:33;;;;;;;7.72;4.38;;;11.70;99.90;;;;;;5067485;28;20082;-73
2021/10/30 00:24:00;;;;;;;12.93;5.43;;;11.70;99.90;;;;;;5071450;28;20072;-74
2021/10/30 00:26:26;;;;;;;9.43;4.60;;;11.70;99.90;;;;;;5070591;28;20041;-76
2021/10/30 00:28:52;;;;;;;5.82;4.22;;;11.60;99.90;;;;;;5069212;28;20394;-74
2021/10/30 00:31:17;;;;;;;6.13;4.40;;;11.60;99.90;;;;;;5066940;28;20025;-75
2021/10/30 00:33:43;;;;;;;9.70;4.70;;;11.70;99.90;;;;;;5064766;28;20033;-76
2021/10/30 00:36:08;;;;;;;9.00;4.55;;;11.60;99.90;;;;;;5068664;28;20089;-75
2021/10/30 00:38:35;;;;;;;7.43;4.60;;;11.70;99.90;;;;;;5063881;28;20028;-76
2021/10/30 00:41:05;;;;;;;8.00;5.00;;;11.60;99.90;;;;;;5069407;28;20081;-75
2021/10/30 00:43:31;;;;;;;7.65;5.10;;;11.60;99.90;;;;;;5069684;28;20107;-75
2021/10/30 00:45:57;;;;;;;7.60;4.90;;;11.60;99.90;;;;;;5068909;28;20433;-76
2021/10/30 00:48:23;;;;;;;10.60;5.35;;;11.50;99.90;;;;;;5072315;28;20024;-77
2021/10/30 00:50:49;;;;;;;6.97;4.50;;;11.50;99.90;;;;;;5071440;28;20039;-74
2021/10/30 00:53:17;;;;;;;8.55;5.00;;;11.40;99.90;;;;;;5086168;28;20082;-75
2021/10/30 00:55:44;;;;;;;8.75;4.78;;;11.50;99.90;;;;;;5073667;28;20024;-75
2021/10/30 00:58:11;;;;;;;6.20;4.38;;;11.50;99.90;;;;;;5072475;28;20029;-76
2021/10/30 01:00:40;;;;;;;7.85;4.70;;;11.40;99.90;;;;;;5072237;28;20046;-76
2021/10/30 01:03:06;;;;;;;12.25;6.68;;;11.50;99.90;;;;;;5071702;28;20040;-76
2021/10/30 01:05:36;;;;;;;8.63;5.50;;;11.40;99.90;;;;;;5068271;28;20020;-76
2021/10/30 01:08:04;;;;;;;10.43;6.00;;;11.40;99.90;;;;;;5071030;28;20036;-75
2021/10/30 01:10:29;;;;;;;9.10;4.80;;;11.30;99.90;;;;;;5087404;28;20055;-76
2021/10/30 01:12:55;;;;;;;6.53;4.38;;;11.20;99.90;;;;;;5070906;28;20025;-75
2021/10/30 01:15:20;;;;;;;8.95;5.47;;;11.20;99.90;;;;;;5066457;28;20025;-75
2021/10/30 01:17:46;;;;;;;6.72;4.10;;;11.10;99.90;;;;;;5071661;28;20545;-75
2021/10/30 01:20:23;;;;;;;8.27;4.30;;;11.00;99.90;;;;;;5066303;28;20028;-75
2021/10/30 01:22:49;;;;;;;8.40;4.40;;;11.10;99.90;;;;;;5071596;28;20036;-75
2021/10/30 01:25:21;;;;;;;7.15;4.20;;;11.10;99.90;;;;;;5066945;28;20394;-75
2021/10/30 01:27:48;;;;;;;7.10;4.00;;;11.10;99.90;;;;;;5071596;28;20046;-74
2021/10/30 01:30:16;;;;;;;6.43;4.15;;;11.10;99.90;;;;;;5069759;28;20486;-76
2021/10/30 01:32:51;;;;;;;6.95;3.88;;;11.00;99.90;;;;;;5071212;28;20032;-75
2021/10/30 01:35:23;;;;;;;6.57;4.13;;;11.00;99.90;;;;;;5068865;28;20087;-75
2021/10/30 01:37:49;;;;;;;6.93;4.13;;;11.00;99.90;;;;;;5069002;28;20081;-76
2021/10/30 01:40:15;;;;;;;6.85;4.35;;;10.90;99.90;;;;;;5071477;28;20077;-76
2021/10/30 01:42:40;;;;;;;7.80;4.30;;;10.90;99.90;;;;;;5064239;28;20021;-75
2021/10/30 01:45:06;;;;;;;8.63;4.20;;;10.80;99.90;;;;;;5072122;28;20029;-75
2021/10/30 01:47:32;;;;;;;9.02;4.93;;;10.80;99.90;;;;;;5071563;28;20055;-75
2021/10/30 01:49:57;;;;;;;6.75;4.20;;;10.80;99.90;;;;;;5066081;28;20056;-74
2021/10/30 01:52:23;;;;;;;10.88;4.75;;;10.80;99.90;;;;;;5072901;28;20035;-75
2021/10/30 01:54:48;;;;;;;8.90;4.55;;;10.70;99.90;;;;;;5068303;28;20027;-75
2021/10/30 01:57:14;;;;;;;8.13;4.72;;;10.70;99.90;;;;;;5073310;28;20101;-75
2021/10/30 01:59:39;;;;;;;5.85;3.85;;;10.70;99.90;;;;;;5065553;28;20032;-75
2021/10/30 02:02:05;;;;;;;7.28;4.15;;;10.70;99.90;;;;;;5068612;28;20559;-75
2021/10/30 02:04:30;;;;;;;7.72;3.78;;;10.70;99.90;;;;;;5063274;28;20516;-74
2021/10/30 02:06:56;;;;;;;8.95;4.50;;;10.70;99.90;;;;;;5072174;28;20025;-75
2021/10/30 02:09:22;;;;;;;6.43;3.47;;;10.70;99.90;;;;;;5068288;28;20074;-75
2021/10/30 02:11:48;;;;;;;6.93;3.75;;;10.80;99.90;;;;;;5066583;28;20410;-75
2021/10/30 02:14:13;;;;;;;8.00;3.90;;;10.80;99.90;;;;;;5070811;28;20047;-76
2021/10/30 02:16:39;;;;;;;6.30;3.53;;;10.80;99.90;;;;;;5086074;28;20021;-74
2021/10/30 02:19:04;;;;;;;6.70;4.10;;;10.70;99.90;;;;;;5068657;28;20491;-76
2021/10/30 02:21:30;;;;;;;7.95;4.78;;;10.70;99.90;;;;;;5065042;28;20486;-75
2021/10/30 02:23:56;;;;;;;8.52;5.32;;;10.70;99.90;;;;;;5065955;28;20397;-75
2021/10/30 02:26:22;;;;;;;9.55;4.65;;;10.70;99.90;;;;;;5067755;28;20021;-74
2021/10/30 02:28:47;;;;;;;9.45;5.32;;;10.70;99.90;;;;;;5061077;28;20034;-74
2021/10/30 02:31:13;;;;;;;8.50;4.78;;;10.70;99.90;;;;;;5066433;28;20029;-74
2021/10/30 02:33:38;;;;;;;10.32;6.22;;;10.70;99.90;;;;;;5064073;28;20025;-75
2021/10/30 02:36:04;;;;;;;10.77;5.35;;;10.80;99.90;;;;;;5065804;28;20056;-74
2021/10/30 02:38:30;;;;;;;8.82;4.53;;;10.80;99.90;;;;;;5062370;28;20035;-75
2021/10/30 02:40:58;;;;;;;6.72;4.38;;;10.80;99.90;;;;;;5078487;28;20490;-75
2021/10/30 02:43:24;;;;;;;7.60;4.03;;;10.80;99.90;;;;;;5063939;28;20024;-75
2021/10/30 02:45:49;;;;;;;8.73;4.28;;;10.80;99.90;;;;;;5070740;28;20505;-74
2021/10/30 02:48:15;;;;;;;6.25;3.85;;;10.80;99.90;;;;;;5085957;28;20060;-74
2021/10/30 02:50:40;;;;;;;6.97;4.15;;;10.80;99.90;;;;;;5081028;28;20421;-75
2021/10/30 02:53:06;;;;;;;6.63;3.83;;;10.90;99.90;;;;;;5069769;28;20020;-74
2021/10/30 02:55:32;;;;;;;7.13;4.13;;;10.80;99.90;;;;;;5066279;28;20024;-75
2021/10/30 02:57:57;;;;;;;8.52;4.30;;;10.80;99.90;;;;;;5068682;28;20059;-74
2021/10/30 03:00:23;;;;;;;8.10;5.03;;;10.80;99.90;;;;;;5069898;28;20012;-74
2021/10/30 03:02:52;;;;;;;10.13;5.18;;;10.80;99.90;;;;;;5068719;28;20036;-76
2021/10/30 03:05:18;;;;;;;13.90;5.28;;;10.80;99.90;;;;;;5067587;28;20060;-75
2021/10/30 03:07:45;;;;;;;7.72;3.92;;;10.80;99.90;;;;;;5068567;28;20777;-75
2021/10/30 03:10:11;;;;;;;8.73;4.80;;;10.80;99.90;;;;;;5074094;28;20119;-74
2021/10/30 03:12:36;;;;;;;6.93;4.05;;;10.80;99.90;;;;;;5074649;28;20044;-75
2021/10/30 03:15:03;;;;;;;10.32;3.50;;;10.80;99.90;;;;;;5073450;28;20074;-75
2021/10/30 03:17:29;;;;;;;5.32;3.58;;;10.80;99.90;;;;;;5076983;28;20028;-76
2021/10/30 03:19:54;;;;;;;6.05;3.72;;;10.80;99.90;;;;;;5072183;28;20461;-74
2021/10/30 03:22:20;;;;;;;6.90;3.80;;;10.80;99.90;;;;;;5074743;28;20047;-75
2021/10/30 03:24:45;;;;;;;11.75;4.15;;;10.80;99.90;;;;;;5073423;28;20032;-74
2021/10/30 03:27:11;;;;;;;7.00;3.67;;;10.90;99.90;;;;;;5074905;28;20078;-77
2021/10/30 03:29:37;;;;;;;9.40;4.28;;;11.00;99.90;;;;;;5076153;28;20025;-75
2021/10/30 03:32:02;;;;;;;7.20;4.40;;;10.90;99.90;;;;;;5071814;28;20043;-75
2021/10/30 03:34:28;;;;;;;9.27;4.20;;;11.00;99.90;;;;;;5074592;28;20029;-75
2021/10/30 03:36:53;;;;;;;8.80;4.38;;;10.90;99.90;;;;;;5085697;28;20098;-75
2021/10/30 03:39:19;;;;;;;7.95;4.18;;;10.90;99.90;;;;;;5068636;28;20028;-75
2021/10/30 03:41:44;;;;;;;7.63;4.05;;;10.80;99.90;;;;;;5075356;28;20032;-75
2021/10/30 03:44:10;;;;;;;7.47;4.30;;;10.80;99.90;;;;;;5069204;28;20044;-75
2021/10/30 03:46:36;;;;;;;11.60;4.40;;;10.80;99.90;;;;;;5077674;28;20020;-76
2021/10/30 03:49:01;;;;;;;6.90;4.82;;;10.80;99.90;;;;;;5070322;28;20119;-76
2021/10/30 03:51:27;;;;;;;8.52;4.68;;;10.80;99.90;;;;;;5069755;28;20546;-75
2021/10/30 03:53:52;;;;;;;8.90;4.95;;;10.80;99.90;;;;;;5073828;28;20024;-73
2021/10/30 03:56:18;;;;;;;7.68;4.95;;;10.80;99.90;;;;;;5072047;28;20032;-76
2021/10/30 03:58:43;;;;;;;8.82;5.35;;;10.90;99.90;;;;;;5069413;28;20039;-75
2021/10/30 04:01:09;;;;;;;8.60;5.00;;;10.80;99.90;;;;;;5064975;28;20036;-75
2021/10/30 04:03:35;;;;;;;9.65;5.78;;;10.80;99.90;;;;;;5066947;28;20093;-75
2021/10/30 04:06:01;;;;;;;10.85;5.88;;;10.70;99.90;;;;;;5072993;28;20028;-75
2021/10/30 04:08:26;;;;;;;10.57;6.22;;;10.90;99.90;;;;;;5074384;28;20028;-75
2021/10/30 04:10:52;;;;;;;9.43;5.68;;;10.90;99.90;;;;;;5075433;28;20038;-75
2021/10/30 04:13:17;;;;;;;10.90;6.72;;;10.90;99.90;;;;;;5074292;28;20032;-74
2021/10/30 04:15:43;;;;;;;8.68;5.40;;;11.00;99.90;;;;;;5066519;28;20042;-74
2021/10/30 04:18:09;;;;;;;10.63;6.00;;;11.00;99.90;;;;;;5067308;28;20088;-75
2021/10/30 04:20:37;;;;;;;10.50;6.45;;;11.10;99.90;;;;;;5071308;28;20026;-75
2021/10/30 04:23:03;;;;;;;10.50;6.13;;;11.20;99.90;;;;;;5068491;28;20040;-75
2021/10/30 04:25:28;;;;;;;13.88;7.47;;;11.20;99.90;;;;;;5068085;28;20032;-76
2021/10/30 04:27:54;;;;;;;11.40;5.97;;;11.20;99.90;;;;;;5067737;28;20040;-73
2021/10/30 04:30:19;;;;;;;14.60;8.60;;;11.20;99.90;;;;;;5066192;28;20102;-75
2021/10/30 04:32:45;;;;;;;14.02;7.68;;;11.20;99.90;;;;;;5066573;28;20375;-75
2021/10/30 04:35:11;;;;;;;13.35;7.47;;;11.20;99.90;;;;;;5059044;28;20089;-76
2021/10/30 04:37:38;;;;;;;11.05;6.40;;;11.20;99.90;;;;;;5058738;28;20035;-77
2021/10/30 04:40:05;;;;;;;10.05;5.00;;;11.20;99.90;;;;;;5059754;28;20032;-74
2021/10/30 04:42:31;;;;;;;9.35;5.70;;;11.10;99.90;;;;;;5062335;28;20035;-74
2021/10/30 04:44:56;;;;;;;10.15;5.82;;;11.10;99.90;;;;;;5063125;28;20028;-75
2021/10/30 04:47:22;;;;;;;9.40;6.28;;;11.20;99.90;;;;;;5068492;28;20803;-75
2021/10/30 04:49:49;;;;;;;9.23;6.28;;;11.20;99.90;;;;;;5062485;28;20170;-76
2021/10/30 04:52:16;;;;;;;11.10;6.45;;;11.20;99.90;;;;;;5063544;28;20017;-76
2021/10/30 04:54:42;;;;;;;9.60;6.32;;;11.20;99.90;;;;;;5053173;28;20052;-74
2021/10/30 04:57:08;;;;;;;9.77;6.07;;;11.30;99.90;;;;;;5060290;28;20150;-75
2021/10/30 04:59:34;;;;;;;10.45;6.40;;;11.30;99.90;;;;;;5055347;28;20496;-75
2021/10/30 05:02:00;;;;;;;11.48;7.20;;;11.30;99.90;;;;;;5053355;28;20029;-76
2021/10/30 05:04:26;;;;;;;10.88;6.53;;;11.20;99.90;;;;;;5050148;28;20029;-75
2021/10/30 05:06:52;;;;;;;11.23;6.35;;;11.30;99.90;;;;;;5051936;28;20107;-76
2021/10/30 05:09:18;;;;;;;12.95;7.25;;;11.10;99.90;;;;;;5054397;28;20548;-76
2021/10/30 05:11:43;;;;;;;14.10;7.15;;;11.10;99.90;;;;;;5054109;28;20431;-75
2021/10/30 05:14:09;;;;;;;15.50;8.75;;;11.10;99.90;;;;;;5052563;28;20119;-75
2021/10/30 05:16:35;;;;;;;11.82;6.85;;;11.10;99.90;;;;;;5060066;28;20028;-75
2021/10/30 05:19:00;;;;;;;11.20;6.70;;;11.10;99.90;;;;;;5075318;28;20146;-75
2021/10/30 05:21:26;;;;;;;13.30;7.50;;;11.10;99.90;;;;;;5055822;28;20158;-76
2021/10/30 05:23:55;;;;;;;16.95;8.73;;;11.00;99.90;;;;;;5058531;28;20111;-74
2021/10/30 05:26:21;;;;;;;14.57;8.60;;;11.00;99.90;;;;;;5063885;28;20028;-75
2021/10/30 05:28:46;;;;;;;15.68;9.05;;;11.00;99.90;;;;;;5057905;28;20055;-75
2021/10/30 05:31:12;;;;;;;12.50;7.60;;;11.00;99.90;;;;;;5062134;28;20029;-76
2021/10/30 05:33:37;;;;;;;18.85;9.80;;;11.00;99.90;;;;;;5067009;28;20402;-75
2021/10/30 05:36:05;;;;;;;15.50;8.35;;;11.10;99.90;;;;;;5069461;28;20039;-75
2021/10/30 05:38:31;;;;;;;14.15;8.40;;;11.10;99.90;;;;;;5066812;28;20390;-75
2021/10/30 05:40:57;;;;;;;12.25;7.78;;;11.00;99.90;;;;;;5066015;28;20059;-75
2021/10/30 05:43:23;;;;;;;18.20;9.02;;;11.00;99.90;;;;;;5062383;28;20032;-75
2021/10/30 05:45:48;;;;;;;11.90;7.63;;;10.90;99.90;;;;;;5065125;28;20039;-76
2021/10/30 05:48:15;;;;;;;12.25;7.18;;;10.90;99.90;;;;;;5063235;28;20374;-75
2021/10/30 05:50:41;;;;;;;12.80;7.55;;;10.90;99.90;;;;;;5065151;28;20027;-73
2021/10/30 05:53:07;;;;;;;12.82;8.27;;;10.90;99.90;;;;;;5067098;28;20445;-75
2021/10/30 05:55:33;;;;;;;14.30;7.82;;;10.80;99.90;;;;;;5066686;28;20028;-74
2021/10/30 05:57:59;;;;;;;13.75;7.25;;;10.90;99.90;;;;;;5067536;28;20047;-75
2021/10/30 06:00:26;;;;;;;12.30;6.95;;;10.80;99.90;;;;;;5070451;28;20017;-75
2021/10/30 06:02:52;;;;;;;13.60;7.65;;;10.80;99.90;;;;;;5067601;28;20024;-74
2021/10/30 06:05:18;;;;;;;13.07;8.20;;;10.70;99.90;;;;;;5086223;28;20028;-75
2021/10/30 06:07:44;;;;;;;11.80;8.00;;;10.70;99.90;;;;;;5069161;28;20028;-75
2021/10/30 06:10:10;;;;;;;12.98;8.18;;;10.70;99.90;;;;;;5070627;28;20035;-75
2021/10/30 06:12:40;;;;;;;13.73;8.05;;;10.70;99.90;;;;;;5062670;28;20052;-75
2021/10/30 06:15:07;;;;;;;14.13;8.50;;;10.70;99.90;;;;;;5064563;28;20028;-75
2021/10/30 06:17:32;;;;;;;11.63;7.13;;;10.70;99.90;;;;;;5064707;28;20411;-74
2021/10/30 06:19:58;;;;;;;11.10;7.70;;;10.60;99.90;;;;;;5064119;28;20111;-75
2021/10/30 06:22:24;;;;;;;13.57;7.78;;;10.60;99.90;;;;;;5067267;28;20496;-77
2021/10/30 06:24:49;;;;;;;13.48;7.90;;;10.60;99.90;;;;;;5063329;28;20047;-75
2021/10/30 06:27:15;;;;;;;12.88;7.25;;;10.60;99.90;;;;;;5061252;28;20195;-75
2021/10/30 06:29:41;;;;;;;13.27;8.48;;;10.60;99.90;;;;;;5068417;28;20034;-75
2021/10/30 06:32:06;;;;;;;13.00;8.20;;;10.60;99.90;;;;;;5066315;28;20494;-75
2021/10/30 06:34:32;;;;;;;12.30;7.80;;;10.60;99.90;;;;;;5067039;28;20028;-75
2021/10/30 06:36:58;;;;;;;12.85;7.90;;;10.60;99.90;;;;;;5065477;28;20021;-75
2021/10/30 06:39:24;;;;;;;14.02;8.75;;;10.60;99.90;;;;;;5067316;28;20031;-76
2021/10/30 06:41:50;;;;;;;14.40;7.82;;;10.60;99.90;;;;;;5073182;28;20087;-75
2021/10/30 06:44:16;;;;;;;13.07;8.23;;;10.60;99.90;;;;;;5081818;28;20219;-75
2021/10/30 06:46:42;;;;;;;16.05;8.85;;;10.60;99.90;;;;;;5069787;28;20024;-75
2021/10/30 06:49:11;;;;;;;12.93;7.97;;;10.60;99.90;;;;;;5068982;28;20077;-76
2021/10/30 06:51:38;;;;;;;16.30;8.20;;;10.60;99.90;;;;;;5074156;28;20056;-76
2021/10/30 06:54:04;;;;;;;15.13;8.15;;;10.60;99.90;;;;;;5072971;28;20032;-75
2021/10/30 06:56:32;;;;;;;14.60;8.10;;;10.50;99.90;;;;;;5063748;28;20042;-77
2021/10/30 06:58:57;;;;;;;15.88;8.90;;;10.50;99.90;;;;;;5066535;28;20036;-73
2021/10/30 07:01:23;;;;;;;20.33;10.70;;;10.40;99.90;;;;;;5060082;28;20028;-75
2021/10/30 07:03:49;;;;;;;16.95;9.23;;;10.50;99.90;;;;;;5062940;28;20085;-75
2021/10/30 07:06:15;;;;;;;16.60;9.23;;;10.50;99.90;;;;;;5061192;28;20036;-75
2021/10/30 07:08:40;;;;;;;16.15;8.77;;;10.50;99.90;;;;;;5070226;28;20033;-76
2021/10/30 07:11:06;;;;;;;15.57;8.77;;;10.50;99.90;;;;;;5074002;28;20101;-75
2021/10/30 07:13:32;;;;;;;12.30;7.45;;;10.70;99.90;;;;;;5072227;28;20032;-75
2021/10/30 07:15:57;;;;;;;14.43;8.48;;;10.40;99.90;;;;;;5068104;28;20063;-77
2021/10/30 07:18:23;;;;;;;15.23;8.77;;;10.50;99.90;;;;;;5064915;28;20029;-76
2021/10/30 07:20:48;;;;;;;13.73;8.95;;;10.40;99.90;;;;;;5063654;28;20082;-75
2021/10/30 07:23:16;;;;;;;13.93;8.23;;;10.40;99.90;;;;;;5062429;28;20017;-76
2021/10/30 07:25:42;;;;;;;15.43;9.38;;;10.60;99.90;;;;;;5070929;28;20486;-75
2021/10/30 07:28:07;;;;;;;13.57;8.52;;;10.30;99.90;;;;;;5060140;28;20054;-76
2021/10/30 07:30:33;;;;;;;15.73;8.88;;;10.30;99.90;;;;;;5064480;28;20104;-76
2021/10/30 07:32:59;;;;;;;15.80;8.60;;;10.30;99.90;;;;;;5064732;28;20028;-77
2021/10/30 07:35:24;;;;;;;16.05;8.82;;;10.30;99.90;;;;;;5070335;28;20032;-76
2021/10/30 07:37:58;;;;;;;17.35;9.48;;;10.30;99.90;;;;;;5064595;28;20369;-76
2021/10/30 07:40:24;;;;;;;15.48;9.55;;;10.40;99.90;;;;;;5069164;28;20112;-73
2021/10/30 07:42:50;;;;;;;19.15;9.60;;;10.40;99.90;;;;;;5070374;28;20046;-76
2021/10/30 07:45:15;;;;;;;13.52;9.40;;;10.40;99.90;;;;;;5073668;28;20528;-75
2021/10/30 07:47:41;;;;;;;16.48;9.98;;;10.40;99.90;;;;;;5076054;28;20028;-76
2021/10/30 07:50:07;;;;;;;18.55;10.27;;;10.40;99.90;;;;;;5078244;28;20066;-74
2021/10/30 07:52:33;;;;;;;18.13;9.88;;;10.40;99.90;;;;;;5077389;28;20024;-76
2021/10/30 07:54:59;;;;;;;15.07;9.52;;;10.40;99.90;;;;;;5077907;28;20047;-74
2021/10/30 07:57:25;;;;;;;15.80;10.20;;;10.40;99.90;;;;;;5072749;28;20472;-75
2021/10/30 07:59:50;;;;;;;16.88;10.23;;;10.30;99.90;;;;;;5060636;28;20021;-74
2021/10/30 08:02:20;;;;;;;16.88;9.80;;;10.30;99.90;;;;;;5058608;28;20021;-77
2021/10/30 08:04:46;;;;;;;20.75;10.90;;;10.30;99.90;;;;;;5061690;28;20154;-78
2021/10/30 08:07:12;;;;;;;16.83;11.02;;;10.30;99.90;;;;;;5054814;28;20527;-77
2021/10/30 08:09:42;;;;;;;19.08;10.73;;;10.30;99.90;;;;;;5062030;28;20197;-75
2021/10/30 08:12:10;;;;;;;21.03;11.27;;;10.30;99.90;;;;;;5064544;28;20037;-79
2021/10/30 08:14:36;;;;;;;19.20;11.15;;;10.30;99.90;;;;;;5063061;28;20025;-75
2021/10/30 08:17:01;;;;;;;19.30;11.45;;;10.30;99.90;;;;;;5065202;28;20375;-75
2021/10/30 08:19:27;;;;;;;17.77;10.80;;;10.30;99.90;;;;;;5060183;28;20410;-75
2021/10/30 08:21:52;;;;;;;19.33;11.18;;;10.30;99.90;;;;;;5062440;28;20107;-78
2021/10/30 08:24:18;;;;;;;19.08;12.00;;;10.20;99.90;;;;;;5057354;28;20702;-75
2021/10/30 08:26:44;;;;;;;18.48;10.80;;;10.30;99.90;;;;;;5057813;28;20020;-75
2021/10/30 08:29:10;;;;;;;18.77;11.23;;;10.20;99.90;;;;;;5059889;28;20136;-77
2021/10/30 08:31:35;;;;;;;17.17;11.50;;;10.10;99.90;;;;;;5060609;28;20051;-77
2021/10/30 08:34:01;;;;;;;18.50;10.43;;;10.20;99.90;;;;;;5063681;28;20028;-76
2021/10/30 08:36:28;;;;;;;17.20;10.75;;;10.40;99.90;;;;;;5061756;28;20328;-74
2021/10/30 08:38:54;;;;;;;20.88;12.10;;;10.40;99.90;;;;;;5056812;28;20574;-78
2021/10/30 08:41:20;;;;;;;17.90;10.90;;;10.50;99.90;;;;;;5073877;28;20025;-74
2021/10/30 08:43:48;;;;;;;18.80;11.27;;;10.40;99.90;;;;;;5046593;28;20028;-77
2021/10/30 08:46:15;;;;;;;15.77;10.88;;;10.40;99.90;;;;;;5059369;28;20025;-74
2021/10/30 08:48:43;;;;;;;16.30;10.70;;;10.40;99.90;;;;;;5064804;28;20035;-76
2021/10/30 08:51:09;;;;;;;19.75;11.50;;;10.80;99.90;;;;;;5061601;28;20034;-79
2021/10/30 08:53:35;;;;;;;20.05;11.30;;;10.50;99.90;;;;;;5063898;28;20500;-76
2021/10/30 08:56:03;;;;;;;20.10;10.93;;;10.50;99.90;;;;;;5059008;28;20447;-75
2021/10/30 08:58:30;;;;;;;18.08;10.45;;;10.50;99.90;;;;;;5055663;28;23303;-76
2021/10/30 09:01:02;;;;;;;15.88;9.70;;;10.50;99.90;;;;;;5054168;28;20020;-76
2021/10/30 09:03:29;;;;;;;15.38;9.65;;;10.50;99.90;;;;;;5062014;28;20042;-76
2021/10/30 09:05:58;;;;;;;16.65;10.05;;;10.50;99.90;;;;;;5064554;28;20037;-76
2021/10/30 09:08:28;;;;;;;19.92;10.32;;;10.50;99.90;;;;;;5057649;28;20071;-75
2021/10/30 09:11:02;;;;;;;16.77;11.07;;;10.50;99.90;;;;;;5064551;28;20482;-75
2021/10/30 09:13:30;;;;;;;15.90;9.98;;;10.40;99.90;;;;;;5057227;28;20035;-76
2021/10/30 09:15:58;;;;;;;25.52;15.48;;;10.40;99.90;;;;;;5056454;28;20685;-76
2021/10/30 09:18:32;;;;;;;15.30;11.07;;;10.40;99.90;;;;;;5059374;28;20036;-76
2021/10/30 09:21:03;;;;;;;21.55;11.82;;;10.50;99.90;;;;;;5060997;28;20090;-77
2021/10/30 09:23:38;;;;;;;16.58;9.48;;;10.50;99.90;;;;;;5064493;28;20052;-76
2021/10/30 09:26:20;;;;;;;13.75;8.88;;;10.50;99.90;;;;;;5065331;28;20032;-76
2021/10/30 09:29:02;;;;;;;15.02;10.25;;;10.50;99.90;;;;;;5058580;28;20103;-75
2021/10/30 09:31:28;;;;;;;17.25;10.55;;;10.60;99.90;;;;;;5067501;28;20024;-76
2021/10/30 09:34:18;;;;;;;15.68;9.20;;;10.60;99.90;;;;;;5067939;28;20047;-75
2021/10/30 09:36:44;;;;;;;16.63;9.50;;;10.60;99.90;;;;;;5061876;28;20025;-76
2021/10/30 09:39:14;;;;;;;13.15;8.32;;;10.70;99.90;;;;;;5060705;28;20102;-76
2021/10/30 09:41:42;;;;;;;13.52;8.55;;;10.80;99.90;;;;;;5057607;28;20042;-76
2021/10/30 09:44:17;;;;;;;12.77;8.05;;;10.80;99.90;;;;;;5061321;28;20024;-77
2021/10/30 09:46:45;;;;;;;13.45;8.52;;;10.80;99.90;;;;;;5056391;28;20131;-74
2021/10/30 09:49:16;;;;;;;15.75;9.52;;;10.80;99.90;;;;;;5060529;28;20070;-75
2021/10/30 09:51:47;;;;;;;15.35;8.70;;;10.80;99.90;;;;;;5055294;28;20056;-76
2021/10/30 09:54:12;;;;;;;;;;;10.80;99.90;;;;;;5059310;28;20110;-74
2021/10/30 09:56:46;;;;;;;18.42;9.07;;;10.90;99.90;;;;;;5061159;28;19970;-75
2021/10/30 09:59:13;;;;;;;17.55;9.20;;;10.90;99.90;;;;;;5059812;28;20048;-75
2021/10/30 10:01:39;;;;;;;17.95;9.20;;;10.80;99.90;;;;;;5064756;28;20020;-77
2021/10/30 10:04:05;;;;;;;13.38;8.75;;;10.80;99.90;;;;;;5063097;28;20115;-74
2021/10/30 10:06:33;;;;;;;12.32;7.78;;;10.80;99.90;;;;;;5062558;28;20178;-75
2021/10/30 10:09:01;;;;;;;15.30;7.28;;;10.80;99.90;;;;;;5057355;28;20085;-78
2021/10/30 10:11:27;;;;;;;12.35;7.95;;;10.90;99.90;;;;;;5058189;28;20028;-75
2021/10/30 10:13:53;;;;;;;13.25;7.93;;;11.00;99.90;;;;;;5068854;28;20028;-75
2021/10/30 10:16:22;;;;;;;12.85;7.15;;;11.10;99.90;;;;;;5067694;28;20028;-76
2021/10/30 10:18:49;;;;;;;12.38;6.88;;;11.20;99.90;;;;;;5068224;28;20028;-76
2021/10/30 10:21:18;;;;;;;11.70;6.78;;;11.20;99.90;;;;;;5066495;28;20020;-76
2021/10/30 10:23:44;;;;;;;10.80;6.80;;;11.20;99.90;;;;;;5068432;28;20024;-79
2021/10/30 10:26:11;;;;;;;11.35;7.15;;;11.20;99.90;;;;;;5067798;28;20790;-75
2021/10/30 10:28:37;;;;;;;11.40;6.88;;;11.30;99.90;;;;;;5069182;28;20040;-76
2021/10/30 10:31:13;;;;;;;9.68;7.15;;;11.30;99.90;;;;;;5065627;28;20029;-75
2021/10/30 10:33:40;;;;;;;10.00;7.18;;;11.40;99.90;;;;;;5068821;28;20485;-75
2021/10/30 10:36:15;;;;;;;10.30;7.50;;;11.40;99.90;;;;;;5066458;28;20036;-75
2021/10/30 10:38:56;;;;;;;13.38;7.15;;;11.40;99.90;;;;;;5067476;28;20025;-75
2021/10/30 10:41:37;;;;;;;14.30;7.40;;;11.30;99.90;;;;;;5068303;28;20028;-76
2021/10/30 10:44:03;;;;;;;;;;;11.30;99.90;;;;;;5069111;28;20043;-76
2021/10/30 10:46:30;;;;;;;13.77;8.00;;;11.30;99.90;;;;;;5086717;28;19973;-76
2021/10/30 10:49:19;;;;;;;12.52;7.00;;;11.40;99.90;;;;;;5065878;28;20055;-75
2021/10/30 10:51:52;;;;;;;13.32;8.50;;;11.40;99.90;;;;;;5069062;28;20020;-75
2021/10/30 10:54:17;;;;;;;14.50;8.02;;;11.40;99.90;;;;;;5068929;28;20027;-76
2021/10/30 10:56:56;;;;;;;12.52;8.00;;;11.40;99.90;;;;;;5075770;28;20024;-77
2021/10/30 10:59:39;;;;;;;15.73;8.50;;;11.60;99.90;;;;;;5071680;28;20074;-75
2021/10/30 11:02:21;;;;;;;11.55;7.65;;;11.40;99.90;;;;;;5070182;28;20277;-76
2021/10/30 11:05:09;;;;;;;12.95;7.70;;;11.40;99.90;;;;;;5069634;28;20112;-77
2021/10/30 11:07:41;;;;;;;12.20;7.75;;;11.50;99.90;;;;;;5070128;28;20462;-76
2021/10/30 11:10:12;;;;;;;15.00;8.20;;;11.50;99.90;;;;;;5073287;28;20044;-77
2021/10/30 11:12:37;;;;;;;14.35;8.23;;;11.40;99.90;;;;;;5078554;28;20078;-75
2021/10/30 11:15:11;;;;;;;13.02;7.57;;;11.30;99.90;;;;;;5064930;28;20029;-75
2021/10/30 11:18:00;;;;;;;15.18;7.75;;;11.50;99.90;;;;;;5064850;28;20044;-76
2021/10/30 11:20:45;;;;;;;13.75;7.65;;;11.50;99.90;;;;;;5069486;28;20533;-75
2021/10/30 11:23:28;;;;;;;13.57;8.15;;;11.50;99.90;;;;;;5068819;28;20090;-75
2021/10/30 11:26:11;;;;;;;11.80;7.90;;;11.50;99.90;;;;;;5066860;28;20079;-77
2021/10/30 11:28:38;;;;;;;13.63;7.93;;;11.40;99.90;;;;;;5070882;28;20025;-76
2021/10/30 11:31:24;;;;;;;12.55;7.65;;;11.40;99.90;;;;;;5076382;28;20025;-75
2021/10/30 11:34:00;;;;;;;13.65;8.75;;;11.60;99.90;;;;;;5069274;28;20555;-78
2021/10/30 11:36:27;;;;;;;11.68;7.28;;;11.50;99.90;;;;;;5087848;28;20401;-76
2021/10/30 11:38:56;;;;;;;10.80;7.95;;;11.50;99.90;;;;;;5066479;28;20047;-76
2021/10/30 11:41:26;;;;;;;12.00;7.72;;;11.50;99.90;;;;;;5073235;28;20151;-75
2021/10/30 11:44:02;;;;;;;12.40;7.68;;;11.60;99.90;;;;;;5073888;28;20573;-75
2021/10/30 11:46:28;;;;;;;11.48;7.15;;;11.60;99.90;;;;;;5072374;28;20034;-75
2021/10/30 11:48:56;;;;;;;12.70;7.07;;;11.60;99.90;;;;;;5071983;28;20112;-76
2021/10/30 11:51:32;;;;;;;8.48;6.22;;;11.70;99.90;;;;;;5067938;28;20646;-75
2021/10/30 11:53:59;;;;;;;10.05;5.97;;;11.60;99.90;;;;;;5068330;28;20032;-77
2021/10/30 11:56:26;;;;;;;10.05;6.38;;;11.60;99.90;;;;;;5062009;28;20025;-78
2021/10/30 11:58:58;;;;;;;10.00;6.53;;;11.70;99.90;;;;;;5060137;28;20486;-75
2021/10/30 12:01:30;;;;;;;11.25;7.05;;;11.70;99.90;;;;;;5075430;28;20016;-74
2021/10/30 12:04:01;;;;;;;12.13;6.95;;;11.80;99.90;;;;;;5063086;28;20394;-75
2021/10/30 12:06:30;;;;;;;11.23;7.65;;;11.80;99.90;;;;;;5067963;28;20028;-75
2021/10/30 12:08:56;;;;;;;12.15;7.60;;;11.90;99.90;;;;;;5062674;28;20452;-75
2021/10/30 12:11:23;;;;;;;13.32;7.25;;;11.90;99.90;;;;;;5070423;28;20113;-76
2021/10/30 12:13:50;;;;;;;10.45;6.60;;;12.00;99.90;;;;;;5073242;28;20612;-76
2021/10/30 12:16:16;;;;;;;10.75;6.32;;;12.10;99.90;;;;;;5062544;28;20020;-75
2021/10/30 12:18:43;;;;;;;9.77;6.43;;;12.10;99.90;;;;;;5069843;28;20021;-75
2021/10/30 12:21:10;;;;;;;13.55;7.80;;;12.20;99.90;;;;;;5076046;28;20077;-76
2021/10/30 12:24:03;;;;;;;11.40;6.28;;;12.20;99.90;;;;;;5063052;28;20088;-75
2021/10/30 12:26:30;;;;;;;10.70;5.97;;;12.20;99.90;;;;;;5066884;28;20463;-75
2021/10/30 12:29:16;;;;;;;10.57;6.40;;;12.90;99.90;;;;;;5072109;28;20033;-74
2021/10/30 12:32:05;;;;;;;11.43;5.88;;;12.50;99.90;;;;;;5064409;28;20064;-75
2021/10/30 12:34:32;;;;;;;11.80;6.70;;;12.50;99.90;;;;;;5070242;28;20028;-75
2021/10/30 12:37:04;;;;;;;9.30;5.95;;;12.50;99.90;;;;;;5072062;28;20029;-75
2021/10/30 12:39:30;;;;;;;10.68;6.18;;;12.40;99.90;;;;;;5071849;28;20095;-75
2021/10/30 12:42:03;;;;;;;12.80;6.88;;;12.30;99.90;;;;;;5065430;28;20461;-74
2021/10/30 12:44:32;;;;;;;10.43;5.85;;;12.40;99.90;;;;;;5068513;28;20094;-75